Time;durP1;ratioP1;P1;durP2;ratioP2;P2;SDS_P1;SDS_P2;PMS_P1;PMS_P2;Temp;Humidity;BMP_temperature;BMP_pressure;BME280_temperature;BME280_humidity;BME280_pressure;Samples;Min_cycle;Max_cycle;Signal;HPM_P1;HPM_P2
2022/03/05 00:01:05;;;;;;;;;0.75;0.75;13.80;99.90;;;;;;5050087;28;11212;-54
2022/03/05 00:03:36;;;;;;;;;0.00;0.00;13.70;99.90;;;;;;5055063;28;11234;-59
2022/03/05 00:06:06;;;;;;;;;1.00;1.00;13.50;99.90;;;;;;5055655;28;11950;-58
2022/03/05 00:08:37;;;;;;;;;1.00;1.00;13.50;99.90;;;;;;5039677;28;11446;-52
2022/03/05 00:11:08;;;;;;;;;1.00;1.00;13.50;99.90;;;;;;5056172;28;11481;-53
2022/03/05 00:13:39;;;;;;;;;1.00;1.00;13.50;99.90;;;;;;5049732;28;12185;-58
2022/03/05 00:16:11;;;;;;;;;1.00;1.00;13.50;99.90;;;;;;5053977;28;11452;-52
2022/03/05 00:18:44;;;;;;;;;5.00;3.50;13.50;99.90;;;;;;5053349;28;11463;-59
2022/03/05 00:21:15;;;;;;;;;2.00;2.00;13.40;99.90;;;;;;5053982;28;11438;-60
2022/03/05 00:23:46;;;;;;;;;1.50;1.50;13.40;99.90;;;;;;5047918;28;11547;-52
2022/03/05 00:26:17;;;;;;;;;1.25;1.25;13.30;99.90;;;;;;5059481;28;11424;-60
2022/03/05 00:28:48;;;;;;;;;0.50;0.00;13.30;99.90;;;;;;5052818;28;12233;-59
2022/03/05 00:31:18;;;;;;;;;2.00;2.00;13.20;99.90;;;;;;5054823;28;11432;-58
2022/03/05 00:33:50;;;;;;;;;3.50;1.75;13.20;99.90;;;;;;5055153;28;11478;-54
2022/03/05 00:36:22;;;;;;;;;2.25;1.75;13.20;99.90;;;;;;5052682;28;11492;-59
2022/03/05 00:38:52;;;;;;;;;1.00;1.00;13.20;99.90;;;;;;5052599;28;11483;-50
2022/03/05 00:41:24;;;;;;;;;1.00;1.00;13.10;99.90;;;;;;5052115;28;11516;-52
2022/03/05 00:43:55;;;;;;;;;1.00;1.00;13.10;99.90;;;;;;5051704;28;11452;-59
2022/03/05 00:46:27;;;;;;;;;1.25;1.00;13.20;99.90;;;;;;5052147;28;11470;-60
2022/03/05 00:48:58;;;;;;;;;1.25;1.25;13.10;99.90;;;;;;5054063;28;11480;-50
2022/03/05 00:51:29;;;;;;;;;1.25;1.25;13.10;99.90;;;;;;5051090;28;11455;-52
2022/03/05 00:54:00;;;;;;;;;0.75;0.75;13.10;99.90;;;;;;5050250;28;11461;-52
2022/03/05 00:56:31;;;;;;;;;2.25;2.25;13.00;99.90;;;;;;5054772;28;11450;-52
2022/03/05 00:59:01;;;;;;;;;2.00;2.00;13.00;99.90;;;;;;5057805;28;11450;-53
2022/03/05 01:01:31;;;;;;;;;2.50;1.00;13.00;99.90;;;;;;5051569;28;11467;-50
2022/03/05 01:04:04;;;;;;;;;1.00;1.00;13.00;99.90;;;;;;5050588;28;11469;-52
2022/03/05 01:06:36;;;;;;;;;1.75;1.75;12.90;99.90;;;;;;5049209;28;11427;-50
2022/03/05 01:09:06;;;;;;;;;4.00;4.00;12.90;99.90;;;;;;5052040;28;11469;-59
2022/03/05 01:11:39;;;;;;;;;3.00;2.00;12.80;99.90;;;;;;5045902;28;11486;-59
2022/03/05 01:14:10;;;;;;;;;1.75;1.75;12.80;99.90;;;;;;5048018;28;11537;-59
2022/03/05 01:16:42;;;;;;;;;2.75;1.00;12.80;99.90;;;;;;5043220;28;11431;-59
2022/03/05 01:19:13;;;;;;;;;2.50;2.25;12.70;99.90;;;;;;5053947;28;11440;-60
2022/03/05 01:21:45;;;;;;;;;1.00;1.00;12.70;99.90;;;;;;5053607;28;11434;-48
2022/03/05 01:24:15;;;;;;;;;1.00;1.00;12.60;99.90;;;;;;5051841;28;11448;-51
2022/03/05 01:26:46;;;;;;;;;2.00;2.00;12.60;99.90;;;;;;5053415;28;11425;-52
2022/03/05 01:29:16;;;;;;;;;2.00;2.00;12.60;99.90;;;;;;5055460;28;11495;-52
2022/03/05 01:31:48;;;;;;;;;1.25;1.25;12.60;99.90;;;;;;5046784;28;12322;-53
2022/03/05 01:34:20;;;;;;;;;0.00;0.00;12.50;99.90;;;;;;5052290;28;11452;-59
2022/03/05 01:36:52;;;;;;;;;3.00;2.75;12.50;99.90;;;;;;5048101;28;11818;-50
2022/03/05 01:39:22;;;;;;;;;2.75;2.00;12.40;99.90;;;;;;5034267;28;11475;-58
2022/03/05 01:41:55;;;;;;;;;2.50;1.75;12.30;99.90;;;;;;5051430;28;12277;-57
2022/03/05 01:44:26;;;;;;;;;1.00;1.00;12.20;99.90;;;;;;5043731;28;11455;-60
2022/03/05 01:47:03;;;;;;;;;1.25;1.25;12.20;99.90;;;;;;5054503;28;11462;-52
2022/03/05 01:49:34;;;;;;;;;2.00;2.00;12.30;99.90;;;;;;5046378;28;12283;-53
2022/03/05 01:52:05;;;;;;;;;4.25;2.50;12.10;99.90;;;;;;5051886;28;11463;-60
2022/03/05 01:54:42;;;;;;;;;1.50;1.50;12.10;99.90;;;;;;5047747;28;11518;-50
2022/03/05 01:57:13;;;;;;;;;2.75;2.75;12.10;99.90;;;;;;5051421;28;11520;-53
2022/03/05 01:59:44;;;;;;;;;1.00;1.00;12.00;99.90;;;;;;5042671;28;11523;-51
2022/03/05 02:02:15;;;;;;;;;2.00;2.00;12.00;99.90;;;;;;5055757;28;11454;-59
2022/03/05 02:04:46;;;;;;;;;1.25;1.25;11.90;99.90;;;;;;5051142;28;11501;-52
2022/03/05 02:07:18;;;;;;;;;1.50;1.50;11.90;99.90;;;;;;5055559;28;11550;-59
2022/03/05 02:09:52;;;;;;;;;1.25;1.25;12.00;99.90;;;;;;5045713;28;11451;-53
2022/03/05 02:12:32;;;;;;;;;3.00;2.00;11.90;99.90;;;;;;5050427;28;11440;-52
2022/03/05 02:15:04;;;;;;;;;2.00;2.00;11.90;99.90;;;;;;5053065;28;11847;-53
2022/03/05 02:17:36;;;;;;;;;2.25;1.50;11.90;99.90;;;;;;5056517;28;11509;-60
2022/03/05 02:20:08;;;;;;;;;2.00;2.00;11.80;99.90;;;;;;5045589;28;11529;-59
2022/03/05 02:22:41;;;;;;;;;1.00;1.00;11.80;99.90;;;;;;5051732;28;12294;-58
2022/03/05 02:25:12;;;;;;;;;3.00;2.00;11.80;99.90;;;;;;5051572;28;11480;-59
2022/03/05 02:27:44;;;;;;;;;3.00;2.75;11.80;99.90;;;;;;5054657;28;11506;-58
2022/03/05 02:30:17;;;;;;;;;1.00;1.00;11.80;99.90;;;;;;5049690;28;11552;-54
2022/03/05 02:32:47;;;;;;;;;0.75;0.75;11.80;99.90;;;;;;5050400;28;11505;-50
2022/03/05 02:35:17;;;;;;;;;2.00;2.00;11.70;99.90;;;;;;5053145;28;11533;-51
2022/03/05 02:37:48;;;;;;;;;2.25;2.25;11.70;99.90;;;;;;5064295;28;11513;-52
2022/03/05 02:40:18;;;;;;;;;1.50;1.50;11.60;99.90;;;;;;5058275;28;11655;-51
2022/03/05 02:42:49;;;;;;;;;1.00;1.00;11.70;99.90;;;;;;5038807;28;11523;-51
2022/03/05 02:45:19;;;;;;;;;0.00;0.00;11.70;99.90;;;;;;5052565;28;11540;-59
2022/03/05 02:47:52;;;;;;;;;2.00;2.00;11.70;99.90;;;;;;5053397;28;12087;-59
2022/03/05 02:50:23;;;;;;;;;2.00;2.00;11.70;99.90;;;;;;5055579;28;11502;-59
2022/03/05 02:52:56;;;;;;;;;1.00;1.00;11.70;99.90;;;;;;5056557;28;11586;-59
2022/03/05 02:55:26;;;;;;;;;1.50;1.50;11.60;99.90;;;;;;5057880;28;11477;-54
2022/03/05 02:57:58;;;;;;;;;2.00;2.00;11.60;99.90;;;;;;5056940;28;11538;-52
2022/03/05 03:00:30;;;;;;;;;3.00;3.00;11.60;99.90;;;;;;5055836;28;11560;-59
2022/03/05 03:03:02;;;;;;;;;2.50;2.50;11.60;99.90;;;;;;5055547;28;11527;-60
2022/03/05 03:05:34;;;;;;;;;2.25;1.25;11.60;99.90;;;;;;5060522;28;11487;-51
2022/03/05 03:08:05;;;;;;;;;1.25;1.25;11.50;99.90;;;;;;5047901;28;11494;-56
2022/03/05 03:10:38;;;;;;;;;4.75;4.75;11.50;99.90;;;;;;5052913;28;11540;-58
2022/03/05 03:13:08;;;;;;;;;8.25;8.25;11.40;99.90;;;;;;5053980;28;11536;-51
2022/03/05 03:15:39;;;;;;;;;13.00;11.25;11.40;99.90;;;;;;5049516;28;11514;-55
2022/03/05 03:18:10;;;;;;;;;12.00;12.00;11.40;99.90;;;;;;5054662;28;11540;-57
2022/03/05 03:20:40;;;;;;;;;14.75;14.75;11.40;99.90;;;;;;5053751;28;11530;-54
2022/03/05 03:23:16;;;;;;;;;16.25;14.50;11.40;99.90;;;;;;5052694;28;11513;-55
2022/03/05 03:25:47;;;;;;;;;15.25;13.75;11.30;99.90;;;;;;5050758;28;11552;-55
2022/03/05 03:28:17;;;;;;;;;18.00;16.00;11.30;99.90;;;;;;5056475;28;11568;-55
2022/03/05 03:30:49;;;;;;;;;14.00;14.00;11.30;99.90;;;;;;5046102;28;11540;-54
2022/03/05 03:33:21;;;;;;;;;16.00;16.00;11.30;99.90;;;;;;5054109;28;11579;-54
2022/03/05 03:35:51;;;;;;;;;10.75;6.25;11.20;99.90;;;;;;5055638;28;12330;-54
2022/03/05 03:38:22;;;;;;;;;1.75;1.00;11.20;99.90;;;;;;5055008;28;11591;-55
2022/03/05 03:40:55;;;;;;;;;0.75;0.75;11.20;99.90;;;;;;5050549;28;11502;-54
2022/03/05 03:43:26;;;;;;;;;2.00;2.00;11.20;99.90;;;;;;5061946;28;12293;-54
2022/03/05 03:45:58;;;;;;;;;1.75;1.75;11.10;99.90;;;;;;5055832;28;11514;-56
2022/03/05 03:48:32;;;;;;;;;3.00;3.00;11.20;99.90;;;;;;5065189;28;11632;-55
2022/03/05 03:51:06;;;;;;;;;3.75;3.75;11.20;99.90;;;;;;5055060;27;11602;-55
2022/03/05 03:53:37;;;;;;;;;2.75;2.75;11.20;99.90;;;;;;5050634;28;11563;-55
2022/03/05 03:56:10;;;;;;;;;2.50;2.50;11.20;99.90;;;;;;5035525;28;12446;-54
2022/03/05 03:58:41;;;;;;;;;6.75;6.75;11.20;99.90;;;;;;5052583;28;11606;-56
2022/03/05 04:01:13;;;;;;;;;13.00;12.75;11.20;99.90;;;;;;5050324;28;11563;-55
2022/03/05 04:03:45;;;;;;;;;20.50;20.50;11.30;99.90;;;;;;5047509;28;11573;-54
2022/03/05 04:06:17;;;;;;;;;20.25;18.00;11.30;99.90;;;;;;5058852;28;11583;-54
2022/03/05 04:08:47;;;;;;;;;18.75;18.75;11.30;99.90;;;;;;5048500;28;11594;-56
2022/03/05 04:11:21;;;;;;;;;19.75;19.75;11.30;99.90;;;;;;5056479;28;11564;-54
2022/03/05 04:13:52;;;;;;;;;16.00;16.00;11.30;99.90;;;;;;5048047;28;11581;-53
2022/03/05 04:16:21;;;;;;;;;21.00;15.75;11.30;99.90;;;;;;5050130;28;11583;-55
2022/03/05 04:18:53;;;;;;;;;17.00;17.00;11.30;99.90;;;;;;5054768;28;11535;-54
2022/03/05 04:21:24;;;;;;;;;19.00;19.00;11.30;99.90;;;;;;5055330;28;11527;-55
2022/03/05 04:23:55;;;;;;;;;17.25;17.25;11.20;99.90;;;;;;5050966;28;11542;-55
2022/03/05 04:26:25;;;;;;;;;16.75;14.50;11.20;99.90;;;;;;5047952;28;11535;-54
2022/03/05 04:28:56;;;;;;;;;11.00;11.00;11.30;99.90;;;;;;5047394;28;12202;-61
2022/03/05 04:31:27;;;;;;;;;7.75;7.75;11.30;99.90;;;;;;5047165;28;11537;-54
2022/03/05 04:33:57;;;;;;;;;3.00;3.00;11.40;99.90;;;;;;5049289;28;11535;-57
2022/03/05 04:36:27;;;;;;;;;3.00;3.00;11.40;99.90;;;;;;5054756;28;12235;-57
2022/03/05 04:38:58;;;;;;;;;3.75;3.75;11.30;99.90;;;;;;5049406;28;11518;-56
2022/03/05 04:41:31;;;;;;;;;4.75;4.00;11.40;99.90;;;;;;5045243;28;11540;-55
2022/03/05 04:44:03;;;;;;;;;2.00;2.00;11.40;99.90;;;;;;5053189;28;11507;-56
2022/03/05 04:46:34;;;;;;;;;3.00;1.00;11.40;99.90;;;;;;5049710;28;11505;-55
2022/03/05 04:49:06;;;;;;;;;2.00;1.00;11.40;99.90;;;;;;5047163;28;11515;-56
2022/03/05 04:51:39;;;;;;;;;1.75;1.75;11.40;99.90;;;;;;5045484;28;12228;-54
2022/03/05 04:54:11;;;;;;;;;4.25;2.00;11.40;99.90;;;;;;5052101;28;11576;-54
2022/03/05 04:56:42;;;;;;;;;1.25;1.25;11.40;99.90;;;;;;5047843;28;11502;-54
2022/03/05 04:59:13;;;;;;;;;2.00;2.00;11.40;99.90;;;;;;5055086;28;11570;-56
2022/03/05 05:01:43;;;;;;;;;2.75;2.75;11.40;99.90;;;;;;5051577;28;11535;-55
2022/03/05 05:04:15;;;;;;;;;1.50;1.25;11.40;99.90;;;;;;5047819;28;12098;-53
2022/03/05 05:06:47;;;;;;;;;2.00;2.00;11.40;99.90;;;;;;5051121;28;11542;-54
2022/03/05 05:09:17;;;;;;;;;1.75;1.75;11.40;99.90;;;;;;5050559;28;11541;-55
2022/03/05 05:11:48;;;;;;;;;2.75;2.75;11.50;99.90;;;;;;5054168;28;11522;-56
2022/03/05 05:14:19;;;;;;;;;1.75;1.75;11.40;99.90;;;;;;5057145;28;11512;-55
2022/03/05 05:16:51;;;;;;;;;1.50;1.50;11.50;99.90;;;;;;5053019;28;11544;-55
2022/03/05 05:19:30;;;;;;;;;2.50;2.00;11.50;99.90;;;;;;5053359;28;11512;-55
2022/03/05 05:22:03;;;;;;;;;1.00;1.00;11.50;99.90;;;;;;5047146;28;11537;-54
2022/03/05 05:24:36;;;;;;;;;2.25;1.75;11.50;99.90;;;;;;5051891;28;11519;-55
2022/03/05 05:27:08;;;;;;;;;1.00;1.00;11.40;99.90;;;;;;5049862;28;11537;-54
2022/03/05 05:29:39;;;;;;;;;1.50;0.00;11.40;99.90;;;;;;5050886;28;11488;-53
2022/03/05 05:32:10;;;;;;;;;1.50;1.50;11.40;99.90;;;;;;5050026;28;11499;-55
2022/03/05 05:34:44;;;;;;;;;1.50;1.50;11.50;99.90;;;;;;5055320;28;11507;-54
2022/03/05 05:37:18;;;;;;;;;1.75;1.75;11.50;99.90;;;;;;5048272;28;11528;-55
2022/03/05 05:39:51;;;;;;;;;1.25;1.25;11.40;99.90;;;;;;5055118;28;12310;-55
2022/03/05 05:42:25;;;;;;;;;1.00;1.00;11.40;99.90;;;;;;5051273;28;12327;-53
2022/03/05 05:44:57;;;;;;;;;4.75;2.00;11.50;99.90;;;;;;5047825;28;11491;-54
2022/03/05 05:47:27;;;;;;;;;0.25;0.25;11.40;99.90;;;;;;5045862;28;11514;-56
2022/03/05 05:49:58;;;;;;;;;1.00;1.00;11.50;99.90;;;;;;5055775;28;11507;-56
2022/03/05 05:52:30;;;;;;;;;0.25;0.25;11.50;99.90;;;;;;5038196;28;11525;-56
2022/03/05 05:55:02;;;;;;;;;0.75;0.75;11.50;99.90;;;;;;5048586;28;11489;-57
2022/03/05 05:57:34;;;;;;;;;1.00;1.00;11.40;99.90;;;;;;5053515;28;11476;-56
2022/03/05 06:00:06;;;;;;;;;1.00;1.00;11.40;99.90;;;;;;5046780;28;11512;-57
2022/03/05 06:02:47;;;;;;;;;2.75;2.75;11.20;99.90;;;;;;5045323;28;12269;-55
2022/03/05 06:05:17;;;;;;;;;7.75;6.75;11.20;99.90;;;;;;5055857;28;11580;-56
2022/03/05 06:07:48;;;;;;;;;5.75;5.75;11.20;99.90;;;;;;5055978;28;11499;-56
2022/03/05 06:10:19;;;;;;;;;13.25;12.50;11.20;99.90;;;;;;5045719;28;11534;-53
2022/03/05 06:12:49;;;;;;;;;17.00;17.00;11.20;99.90;;;;;;5059356;28;11518;-54
2022/03/05 06:15:20;;;;;;;;;14.50;14.50;11.10;99.90;;;;;;5056684;28;11552;-54
2022/03/05 06:17:54;;;;;;;;;8.75;8.75;11.10;99.90;;;;;;5058725;28;11565;-55
2022/03/05 06:20:26;;;;;;;;;4.75;4.75;11.10;99.90;;;;;;5054777;28;11587;-56
2022/03/05 06:22:56;;;;;;;;;3.25;3.25;11.00;99.90;;;;;;5057634;28;11601;-53
2022/03/05 06:25:27;;;;;;;;;2.25;1.00;11.10;99.90;;;;;;5056587;28;11573;-55
2022/03/05 06:27:57;;;;;;;;;1.00;0.00;11.10;99.90;;;;;;5060731;28;11487;-56
2022/03/05 06:30:28;;;;;;;;;0.00;0.00;11.00;99.90;;;;;;5050707;28;11532;-56
2022/03/05 06:33:00;;;;;;;;;0.00;0.00;11.00;99.90;;;;;;5059672;28;11484;-55
2022/03/05 06:35:31;;;;;;;;;0.00;0.00;11.00;99.90;;;;;;5052739;28;11493;-54
2022/03/05 06:38:02;;;;;;;;;0.00;0.00;11.10;99.90;;;;;;5055453;28;11472;-56
2022/03/05 06:40:33;;;;;;;;;0.00;0.00;11.00;99.90;;;;;;5047355;28;11489;-57
2022/03/05 06:43:04;;;;;;;;;0.00;0.00;11.00;99.90;;;;;;5051458;28;11639;-56
2022/03/05 06:45:35;;;;;;;;;0.00;0.00;11.00;99.90;;;;;;5051172;28;11499;-55
2022/03/05 06:48:07;;;;;;;;;0.00;0.00;11.10;99.90;;;;;;5052759;28;11552;-54
2022/03/05 06:50:38;;;;;;;;;0.00;0.00;11.00;99.90;;;;;;5051812;28;11495;-55
2022/03/05 06:53:09;;;;;;;;;0.00;0.00;11.00;99.90;;;;;;5051138;28;11499;-57
2022/03/05 06:55:40;;;;;;;;;0.00;0.00;11.00;99.90;;;;;;5040134;28;11527;-56
2022/03/05 06:58:11;;;;;;;;;0.00;0.00;11.00;99.90;;;;;;5050920;28;11535;-55
2022/03/05 07:00:43;;;;;;;;;0.00;0.00;10.90;99.90;;;;;;5049863;28;11516;-54
2022/03/05 07:03:18;;;;;;;;;1.00;0.00;11.00;99.90;;;;;;5050846;28;11474;-54
2022/03/05 07:05:49;;;;;;;;;0.00;0.00;11.00;99.90;;;;;;5050623;28;11938;-54
2022/03/05 07:08:20;;;;;;;;;0.00;0.00;11.00;99.90;;;;;;5049546;28;11504;-55
2022/03/05 07:10:50;;;;;;;;;0.00;0.00;11.00;99.90;;;;;;5050954;28;11495;-55
2022/03/05 07:13:21;;;;;;;;;0.00;0.00;11.00;99.90;;;;;;5054047;28;11542;-55
2022/03/05 07:15:55;;;;;;;;;0.00;0.00;10.90;99.90;;;;;;5050712;28;12293;-56
2022/03/05 07:18:25;;;;;;;;;0.00;0.00;10.90;99.90;;;;;;5048747;28;11516;-52
2022/03/05 07:20:57;;;;;;;;;0.00;0.00;10.90;99.90;;;;;;5050326;28;11510;-55
2022/03/05 07:23:27;;;;;;;;;1.00;0.00;10.90;99.90;;;;;;5050368;28;11490;-57
2022/03/05 07:26:00;;;;;;;;;1.00;1.00;10.90;99.90;;;;;;5055837;28;11495;-56
2022/03/05 07:28:30;;;;;;;;;5.00;0.00;10.90;99.90;;;;;;5052237;28;11528;-55
2022/03/05 07:31:02;;;;;;;;;0.00;0.00;10.80;99.90;;;;;;5053622;27;11520;-55
2022/03/05 07:33:34;;;;;;;;;0.00;0.00;10.80;99.90;;;;;;5048280;28;11488;-55
2022/03/05 07:36:05;;;;;;;;;0.00;0.00;10.80;99.90;;;;;;5053995;28;12268;-53
2022/03/05 07:38:41;;;;;;;;;0.00;0.00;10.80;99.90;;;;;;5057911;28;11497;-53
2022/03/05 07:41:13;;;;;;;;;0.00;0.00;10.80;99.90;;;;;;5050659;28;11491;-55
2022/03/05 07:43:48;;;;;;;;;0.00;0.00;10.80;99.90;;;;;;5052517;28;11952;-55
2022/03/05 07:46:20;;;;;;;;;0.25;0.25;10.80;99.90;;;;;;5051830;28;11507;-56
2022/03/05 07:48:52;;;;;;;;;0.00;0.00;10.80;99.90;;;;;;5049834;28;11495;-55
2022/03/05 07:51:22;;;;;;;;;0.00;0.00;10.80;99.90;;;;;;5048218;28;11497;-54
2022/03/05 07:53:54;;;;;;;;;0.00;0.00;10.80;99.90;;;;;;5052880;28;11499;-57
2022/03/05 07:56:25;;;;;;;;;0.00;0.00;10.80;99.90;;;;;;5052892;28;11520;-55
2022/03/05 07:58:56;;;;;;;;;0.00;0.00;10.70;99.90;;;;;;5049326;28;11552;-53
2022/03/05 08:01:26;;;;;;;;;0.00;0.00;10.70;99.90;;;;;;5046960;28;11529;-54
2022/03/05 08:03:59;;;;;;;;;0.00;0.00;10.70;99.90;;;;;;5053406;28;11531;-54
2022/03/05 08:06:29;;;;;;;;;0.00;0.00;10.70;99.90;;;;;;5048790;28;11506;-56
2022/03/05 08:09:00;;;;;;;;;0.00;0.00;10.80;99.90;;;;;;5047978;28;11521;-55
2022/03/05 08:11:30;;;;;;;;;0.00;0.00;10.70;99.90;;;;;;5047107;28;11502;-54
2022/03/05 08:14:02;;;;;;;;;0.00;0.00;10.70;99.90;;;;;;5054170;28;11501;-55
2022/03/05 08:16:35;;;;;;;;;0.50;0.50;10.70;99.90;;;;;;5049435;28;11553;-53
2022/03/05 08:19:06;;;;;;;;;0.00;0.00;10.70;99.90;;;;;;5053446;28;11511;-54
2022/03/05 08:21:36;;;;;;;;;0.00;0.00;10.60;99.90;;;;;;5043526;28;12219;-55
2022/03/05 08:24:07;;;;;;;;;0.00;0.00;10.70;99.90;;;;;;5050697;28;11530;-56
2022/03/05 08:26:38;;;;;;;;;0.00;0.00;10.50;99.90;;;;;;5047589;28;11479;-55
2022/03/05 08:29:09;;;;;;;;;0.00;0.00;10.50;99.90;;;;;;5055013;28;11505;-56
2022/03/05 08:31:40;;;;;;;;;0.00;0.00;10.50;99.90;;;;;;5042231;28;11517;-55
2022/03/05 08:34:10;;;;;;;;;0.00;0.00;10.60;99.90;;;;;;5044897;28;11554;-54
2022/03/05 08:36:41;;;;;;;;;0.00;0.00;10.50;99.90;;;;;;5044254;28;11609;-56
2022/03/05 08:39:11;;;;;;;;;2.00;0.50;10.50;99.90;;;;;;5068014;28;11499;-53
2022/03/05 08:41:41;;;;;;;;;0.00;0.00;10.50;99.90;;;;;;5053845;28;11718;-56
2022/03/05 08:44:13;;;;;;;;;0.00;0.00;10.50;99.90;;;;;;5034004;28;11552;-55
2022/03/05 08:46:46;;;;;;;;;0.00;0.00;10.50;99.90;;;;;;5048614;28;11484;-56
2022/03/05 08:49:16;;;;;;;;;0.00;0.00;10.30;99.90;;;;;;5050757;28;11535;-55
2022/03/05 08:51:47;;;;;;;;;0.00;0.00;10.30;99.90;;;;;;5050858;28;11512;-55
2022/03/05 08:54:20;;;;;;;;;0.00;0.00;10.30;99.90;;;;;;5049047;28;12238;-55
2022/03/05 08:56:51;;;;;;;;;0.00;0.00;10.30;99.90;;;;;;5044543;28;11508;-55
2022/03/05 08:59:22;;;;;;;;;0.00;0.00;10.30;99.90;;;;;;5050604;28;11555;-55
2022/03/05 09:01:54;;;;;;;;;0.00;0.00;10.10;99.90;;;;;;5049764;28;12298;-55
2022/03/05 09:04:25;;;;;;;;;0.00;0.00;10.20;99.90;;;;;;5047421;28;12238;-56
2022/03/05 09:06:55;;;;;;;;;0.00;0.00;10.20;99.90;;;;;;5047918;28;11494;-56
2022/03/05 09:09:27;;;;;;;;;0.25;0.00;10.10;99.90;;;;;;5030710;28;11504;-54
2022/03/05 09:11:56;;;;;;;;;0.75;0.00;10.10;99.90;;;;;;5045913;28;11510;-55
2022/03/05 09:14:26;;;;;;;;;2.00;0.00;10.10;99.90;;;;;;5047073;28;11513;-56
2022/03/05 09:16:58;;;;;;;;;0.00;0.00;10.10;99.90;;;;;;5035448;28;12139;-54
2022/03/05 09:19:29;;;;;;;;;0.00;0.00;10.10;99.90;;;;;;5051003;28;11510;-54
2022/03/05 09:22:01;;;;;;;;;0.00;0.00;10.10;99.90;;;;;;5045889;28;11543;-55
2022/03/05 09:24:32;;;;;;;;;0.00;0.00;10.10;99.90;;;;;;5048258;28;11482;-56
2022/03/05 09:27:02;;;;;;;;;0.00;0.00;10.10;99.90;;;;;;5045989;28;11508;-56
2022/03/05 09:29:33;;;;;;;;;0.75;0.00;10.10;99.90;;;;;;5040941;28;12196;-56
2022/03/05 09:32:09;;;;;;;;;0.00;0.00;10.10;99.90;;;;;;5033034;28;11490;-55
2022/03/05 09:34:40;;;;;;;;;0.00;0.00;10.10;99.90;;;;;;5048315;28;11531;-57
2022/03/05 09:37:12;;;;;;;;;0.00;0.00;10.10;99.90;;;;;;5045559;28;11493;-57
2022/03/05 09:39:43;;;;;;;;;0.00;0.00;10.10;99.90;;;;;;5048200;28;11470;-54
2022/03/05 09:42:15;;;;;;;;;0.00;0.00;10.10;99.90;;;;;;5048998;28;12248;-53
2022/03/05 09:44:46;;;;;;;;;0.00;0.00;10.10;99.90;;;;;;5046108;28;11923;-55
2022/03/05 09:47:16;;;;;;;;;0.00;0.00;10.10;99.90;;;;;;5052976;28;11530;-55
2022/03/05 09:49:47;;;;;;;;;0.75;0.00;10.00;99.90;;;;;;5055094;28;12114;-56
2022/03/05 09:52:16;;;;;;;;;0.00;0.00;10.00;99.90;;;;;;5052627;28;11496;-55
2022/03/05 09:54:47;;;;;;;;;0.00;0.00;10.00;99.90;;;;;;5050845;28;11864;-55
2022/03/05 09:57:19;;;;;;;;;0.00;0.00;9.90;99.90;;;;;;5054451;28;11539;-54
2022/03/05 09:59:51;;;;;;;;;0.00;0.00;10.00;99.90;;;;;;5040149;28;11548;-56
2022/03/05 10:02:23;;;;;;;;;0.00;0.00;10.00;99.90;;;;;;5053069;28;11514;-55
2022/03/05 10:05:28;;;;;;;;;0.00;0.00;10.00;99.90;;;;;;5057083;28;11527;-53
2022/03/05 10:08:12;;;;;;;;;0.00;0.00;10.00;99.90;;;;;;5044999;28;11475;-55
2022/03/05 10:10:51;;;;;;;;;0.00;0.00;10.00;99.90;;;;;;5052483;28;11497;-52
2022/03/05 10:13:50;;;;;;;;;0.00;0.00;10.00;99.90;;;;;;5052356;28;11516;-53
2022/03/05 10:16:29;;;;;;;;;0.00;0.00;10.00;99.90;;;;;;5034324;28;11479;-56
2022/03/05 10:19:17;;;;;;;;;0.00;0.00;10.10;99.90;;;;;;5053494;28;11487;-53
2022/03/05 10:22:03;;;;;;;;;0.00;0.00;10.00;99.90;;;;;;5051788;28;11553;-53
2022/03/05 10:24:37;;;;;;;;;0.00;0.00;10.00;99.90;;;;;;5063431;28;11645;-54
2022/03/05 10:27:09;;;;;;;;;0.00;0.00;10.00;99.90;;;;;;5049946;28;12358;-54
2022/03/05 10:29:40;;;;;;;;;0.00;0.00;10.00;99.90;;;;;;5049625;28;12133;-54
2022/03/05 10:32:15;;;;;;;;;0.00;0.00;10.00;99.90;;;;;;5049809;28;12278;-54
2022/03/05 10:34:50;;;;;;;;;0.00;0.00;10.00;99.90;;;;;;5053015;28;11515;-56
2022/03/05 10:37:23;;;;;;;;;0.00;0.00;10.00;99.90;;;;;;5050209;28;11516;-55
2022/03/05 10:39:54;;;;;;;;;0.00;0.00;10.00;99.90;;;;;;5058268;28;11511;-54
2022/03/05 10:42:26;;;;;;;;;0.00;0.00;10.00;99.90;;;;;;5051461;28;11529;-55
2022/03/05 10:45:05;;;;;;;;;0.00;0.00;10.00;99.90;;;;;;5049208;28;11497;-53
2022/03/05 10:47:47;;;;;;;;;0.00;0.00;10.00;99.90;;;;;;5049116;28;11495;-53
2022/03/05 10:50:21;;;;;;;;;0.00;0.00;10.00;99.90;;;;;;5055581;28;11478;-53
2022/03/05 10:53:01;;;;;;;;;0.00;0.00;10.00;99.90;;;;;;5055292;28;11536;-54
2022/03/05 10:55:38;;;;;;;;;0.00;0.00;10.00;99.90;;;;;;5048599;28;12280;-56
2022/03/05 10:58:17;;;;;;;;;0.00;0.00;10.00;99.90;;;;;;5050988;28;11559;-56
2022/03/05 11:00:49;;;;;;;;;0.00;0.00;9.90;99.90;;;;;;5054690;28;11516;-56
2022/03/05 11:03:23;;;;;;;;;0.00;0.00;10.00;99.90;;;;;;5068141;28;11503;-55
2022/03/05 11:05:53;;;;;;;;;0.00;0.00;9.90;99.90;;;;;;5053167;28;11556;-55
2022/03/05 11:08:26;;;;;;;;;0.00;0.00;9.90;99.90;;;;;;5044650;28;11493;-53
2022/03/05 11:10:58;;;;;;;;;0.00;0.00;9.90;99.90;;;;;;5048538;28;11549;-54
2022/03/05 11:13:29;;;;;;;;;0.00;0.00;9.90;99.90;;;;;;5056306;28;11464;-57
2022/03/05 11:16:02;;;;;;;;;0.00;0.00;9.90;99.90;;;;;;5047667;28;11524;-56
2022/03/05 11:18:32;;;;;;;;;0.00;0.00;9.80;99.90;;;;;;5049865;28;12266;-56
2022/03/05 11:21:06;;;;;;;;;0.00;0.00;9.80;99.90;;;;;;5047819;28;11504;-57
2022/03/05 11:23:39;;;;;;;;;0.00;0.00;9.80;99.90;;;;;;5046151;28;11919;-55
2022/03/05 11:26:13;;;;;;;;;0.00;0.00;9.80;99.90;;;;;;5047161;28;12293;-57
2022/03/05 11:28:50;;;;;;;;;0.00;0.00;9.80;99.90;;;;;;5053830;28;11499;-56
2022/03/05 11:31:25;;;;;;;;;0.00;0.00;9.80;99.90;;;;;;5051688;28;11548;-56
2022/03/05 11:33:55;;;;;;;;;0.75;0.00;9.80;99.90;;;;;;5054151;28;11516;-55
2022/03/05 11:36:31;;;;;;;;;0.00;0.00;9.80;99.90;;;;;;5052917;28;11476;-55
2022/03/05 11:39:12;;;;;;;;;0.00;0.00;9.80;99.90;;;;;;5051321;28;11578;-57
2022/03/05 11:42:01;;;;;;;;;0.00;0.00;9.80;99.90;;;;;;5050607;28;11482;-52
2022/03/05 11:44:41;;;;;;;;;0.00;0.00;9.80;99.90;;;;;;5047422;28;12206;-56
2022/03/05 11:47:32;;;;;;;;;2.00;0.00;9.80;99.90;;;;;;5051384;28;11555;-54
2022/03/05 11:50:06;;;;;;;;;0.00;0.00;9.80;99.90;;;;;;5057085;28;11489;-55
2022/03/05 11:52:43;;;;;;;;;0.25;0.00;9.80;99.90;;;;;;5050067;28;11528;-56
2022/03/05 11:55:18;;;;;;;;;0.00;0.00;9.70;99.90;;;;;;5047524;28;11529;-56
2022/03/05 11:57:52;;;;;;;;;0.00;0.00;9.70;99.90;;;;;;5049664;28;11534;-56
2022/03/05 12:00:31;;;;;;;;;1.00;0.00;9.60;99.90;;;;;;5036811;28;11987;-55
2022/03/05 12:03:03;;;;;;;;;0.00;0.00;9.60;99.90;;;;;;5046381;28;11826;-57
2022/03/05 12:05:41;;;;;;;;;0.00;0.00;9.70;99.90;;;;;;5053395;28;11506;-57
2022/03/05 12:08:32;;;;;;;;;0.00;0.00;9.70;99.90;;;;;;5041235;28;11541;-54
2022/03/05 12:11:12;;;;;;;;;0.00;0.00;9.70;99.90;;;;;;5060472;28;11521;-57
2022/03/05 12:13:47;;;;;;;;;0.25;0.00;9.70;99.90;;;;;;5032096;28;11466;-55
2022/03/05 12:16:28;;;;;;;;;0.50;0.00;9.70;99.90;;;;;;5049923;28;11497;-54
2022/03/05 12:18:59;;;;;;;;;0.00;0.00;9.70;99.90;;;;;;5049046;28;11475;-55
2022/03/05 12:21:34;;;;;;;;;0.00;0.00;9.70;99.90;;;;;;5050232;28;11984;-54
2022/03/05 12:24:07;;;;;;;;;0.00;0.00;9.70;99.90;;;;;;5051367;28;11500;-56
2022/03/05 12:26:52;;;;;;;;;0.00;0.00;9.70;99.90;;;;;;5049556;28;11539;-57
2022/03/05 12:29:26;;;;;;;;;0.00;0.00;9.60;99.90;;;;;;5049991;28;11517;-56
2022/03/05 12:31:56;;;;;;;;;0.00;0.00;9.60;99.90;;;;;;5049760;28;11484;-56
2022/03/05 12:34:27;;;;;;;;;0.00;0.00;9.60;99.90;;;;;;5049249;28;11503;-54
2022/03/05 12:36:58;;;;;;;;;0.00;0.00;9.60;99.90;;;;;;5052665;28;11486;-54
2022/03/05 12:39:29;;;;;;;;;0.00;0.00;9.60;99.90;;;;;;5050698;28;11507;-53
2022/03/05 12:41:59;;;;;;;;;0.00;0.00;9.70;99.90;;;;;;5052288;28;11519;-56
2022/03/05 12:44:38;;;;;;;;;0.00;0.00;9.60;99.90;;;;;;5045580;28;11514;-55
2022/03/05 12:47:08;;;;;;;;;0.00;0.00;9.60;99.90;;;;;;5050849;28;11494;-54
2022/03/05 12:49:40;;;;;;;;;0.00;0.00;9.60;99.90;;;;;;5049487;28;11548;-53
2022/03/05 12:52:16;;;;;;;;;0.00;0.00;9.60;99.90;;;;;;5060872;28;11475;-53
2022/03/05 12:54:52;;;;;;;;;0.00;0.00;9.70;99.90;;;;;;5033414;28;12356;-54
2022/03/05 12:57:25;;;;;;;;;0.00;0.00;9.70;99.90;;;;;;5050186;28;11646;-57
2022/03/05 13:00:05;;;;;;;;;0.00;0.00;9.70;99.90;;;;;;5048101;28;11493;-51
2022/03/05 13:02:37;;;;;;;;;0.00;0.00;9.70;99.90;;;;;;5052406;28;12377;-56
2022/03/05 13:05:15;;;;;;;;;0.00;0.00;9.60;99.90;;;;;;5049790;28;11509;-56
2022/03/05 13:07:45;;;;;;;;;0.00;0.00;9.60;99.90;;;;;;5048417;28;11553;-56
2022/03/05 13:10:17;;;;;;;;;0.00;0.00;9.70;99.90;;;;;;5048838;28;11919;-54
2022/03/05 13:12:47;;;;;;;;;0.00;0.00;9.70;99.90;;;;;;5052022;28;11461;-51
2022/03/05 13:15:36;;;;;;;;;0.00;0.00;9.70;99.90;;;;;;5042216;28;11497;-55